Time;durP1;ratioP1;P1;durP2;ratioP2;P2;SDS_P1;SDS_P2;PMS_P1;PMS_P2;Temp;Humidity;BMP_temperature;BMP_pressure;BME280_temperature;BME280_humidity;BME280_pressure;Samples;Min_cycle;Max_cycle;Signal;HPM_P1;HPM_P2
2022/12/18 00:00:41;;;;;;;31.88;17.45;;;6.70;99.00;;;;;;5073745;28;20574;-41
2022/12/18 00:03:07;;;;;;;29.70;18.17;;;6.30;99.20;;;;;;5073790;28;20024;-37
2022/12/18 00:05:32;;;;;;;27.35;16.88;;;5.80;99.80;;;;;;5073444;28;20363;-37
2022/12/18 00:07:58;;;;;;;30.08;17.95;;;5.60;99.90;;;;;;5073487;28;20090;-40
2022/12/18 00:10:24;;;;;;;28.48;17.40;;;6.50;99.90;;;;;;5073665;28;20060;-37
2022/12/18 00:12:49;;;;;;;29.77;16.98;;;6.70;98.90;;;;;;5073401;28;20031;-41
2022/12/18 00:15:15;;;;;;;28.27;17.13;;;6.20;99.10;;;;;;5072429;28;20027;-37
2022/12/18 00:17:40;;;;;;;27.95;16.88;;;5.90;99.60;;;;;;5073087;28;20085;-39
2022/12/18 00:20:07;;;;;;;28.17;17.27;;;5.50;99.90;;;;;;5073406;28;20028;-40
2022/12/18 00:22:32;;;;;;;28.40;16.70;;;6.50;99.90;;;;;;5073467;28;20389;-37
2022/12/18 00:24:58;;;;;;;27.92;16.52;;;6.70;98.80;;;;;;5073265;28;20470;-37
2022/12/18 00:27:24;;;;;;;27.63;17.13;;;6.30;99.00;;;;;;5072815;28;20060;-37
2022/12/18 00:29:50;;;;;;;30.08;17.08;;;5.90;99.60;;;;;;5073231;28;20031;-41
2022/12/18 00:32:15;;;;;;;26.40;16.90;;;5.60;99.90;;;;;;5073161;28;20036;-37
2022/12/18 00:34:41;;;;;;;29.92;16.70;;;6.40;99.90;;;;;;5073069;28;20047;-38
2022/12/18 00:37:06;;;;;;;26.52;16.50;;;6.70;98.80;;;;;;5072750;28;20029;-38
2022/12/18 00:39:32;;;;;;;30.02;17.13;;;6.30;99.00;;;;;;5073010;28;20500;-37
2022/12/18 00:45:03;;;;;;;27.42;15.68;;;5.50;99.90;;;;;;5030595;28;20021;-37
2022/12/18 00:47:28;;;;;;;28.05;17.23;;;6.60;99.70;;;;;;5045615;28;20412;-37
2022/12/18 00:49:54;;;;;;;24.88;15.63;;;6.60;98.70;;;;;;5072795;28;20032;-40
2022/12/18 00:52:20;;;;;;;25.92;15.70;;;6.20;99.00;;;;;;5072655;28;20025;-39
2022/12/18 00:54:45;;;;;;;25.38;15.13;;;5.80;99.50;;;;;;5072745;28;20063;-36
2022/12/18 00:57:13;;;;;;;27.02;15.77;;;5.60;99.90;;;;;;5072568;28;20025;-39
2022/12/18 00:59:39;;;;;;;26.35;15.90;;;6.60;99.70;;;;;;5072796;28;20489;-35
2022/12/18 01:02:05;;;;;;;26.55;16.45;;;6.60;98.70;;;;;;5072563;28;20117;-38
2022/12/18 01:04:34;;;;;;;29.25;16.65;;;6.20;99.00;;;;;;5072481;28;20027;-38
2022/12/18 01:07:00;;;;;;;28.10;16.05;;;5.70;99.50;;;;;;5072065;28;20029;-36
2022/12/18 01:09:26;;;;;;;28.63;16.85;;;5.60;99.90;;;;;;5072366;28;20387;-37
2022/12/18 01:11:51;;;;;;;27.50;16.30;;;6.60;99.60;;;;;;5071052;28;20032;-37
2022/12/18 01:14:17;;;;;;;28.30;15.35;;;6.60;98.50;;;;;;5072302;28;20035;-40
2022/12/18 01:16:43;;;;;;;29.38;16.15;;;6.20;99.00;;;;;;5071933;28;20032;-35
2022/12/18 01:19:08;;;;;;;25.02;15.80;;;5.80;99.40;;;;;;5072191;28;20107;-40
2022/12/18 01:21:34;;;;;;;26.95;16.08;;;5.50;99.90;;;;;;5072090;28;20024;-37
2022/12/18 01:24:00;;;;;;;25.02;15.40;;;6.50;99.50;;;;;;5072352;28;20414;-39
2022/12/18 01:26:29;;;;;;;25.33;15.77;;;6.70;98.50;;;;;;5071647;28;20478;-41
2022/12/18 01:28:56;;;;;;;26.48;16.02;;;6.20;98.80;;;;;;5072057;28;20020;-39
2022/12/18 01:31:25;;;;;;;25.92;15.82;;;5.80;99.40;;;;;;5071983;28;20522;-37
2022/12/18 01:33:52;;;;;;;25.50;15.55;;;5.50;99.90;;;;;;5071934;28;20037;-40
2022/12/18 01:36:21;;;;;;;25.48;16.20;;;6.50;99.60;;;;;;5071513;28;20542;-42
2022/12/18 01:38:47;;;;;;;26.92;15.50;;;6.60;98.40;;;;;;5071745;28;20135;-37
2022/12/18 01:41:14;;;;;;;26.92;15.80;;;6.10;98.70;;;;;;5071814;28;20036;-38
2022/12/18 01:43:50;;;;;;;26.90;15.57;;;5.80;99.20;;;;;;5071754;28;20017;-40
2022/12/18 01:46:18;;;;;;;25.33;14.80;;;5.50;99.90;;;;;;5071417;28;20050;-37
2022/12/18 01:48:46;;;;;;;27.92;14.25;;;6.50;99.50;;;;;;5072074;28;20056;-37
2022/12/18 01:51:12;;;;;;;25.23;15.50;;;6.60;98.40;;;;;;5071672;28;20104;-40
2022/12/18 01:53:40;;;;;;;24.48;15.10;;;6.20;98.80;;;;;;5071632;28;20493;-38
2022/12/18 01:56:07;;;;;;;26.27;14.80;;;5.80;99.40;;;;;;5071265;28;20089;-40
2022/12/18 01:58:52;;;;;;;25.23;15.27;;;5.60;99.90;;;;;;5071508;28;20024;-37
2022/12/18 02:01:20;;;;;;;24.52;14.80;;;6.60;99.40;;;;;;5071456;28;20020;-40
2022/12/18 02:03:45;;;;;;;26.17;15.25;;;6.60;98.40;;;;;;5071680;28;20055;-40
2022/12/18 02:06:29;;;;;;;24.80;14.02;;;6.10;98.80;;;;;;5071146;28;20466;-41
2022/12/18 02:09:20;;;;;;;26.98;15.35;;;5.70;99.40;;;;;;5071513;28;20028;-40
2022/12/18 02:12:21;;;;;;;24.15;14.50;;;5.90;99.90;;;;;;5071505;28;20025;-38
2022/12/18 02:14:55;;;;;;;24.77;14.75;;;6.80;98.70;;;;;;5070196;28;20593;-37
2022/12/18 02:17:35;;;;;;;25.85;15.00;;;6.40;98.50;;;;;;5071014;28;20032;-37
2022/12/18 02:20:33;;;;;;;22.30;14.15;;;5.90;99.10;;;;;;5071354;28;20017;-39
2022/12/18 02:23:33;;;;;;;24.85;14.73;;;5.60;99.70;;;;;;5071381;28;20021;-36
2022/12/18 02:26:23;;;;;;;24.58;14.52;;;6.60;99.20;;;;;;5071045;28;20071;-36
2022/12/18 02:28:55;;;;;;;24.52;14.77;;;6.50;98.30;;;;;;5071153;28;20050;-38
2022/12/18 02:31:25;;;;;;;27.98;15.15;;;5.90;98.90;;;;;;5071202;28;20090;-41
2022/12/18 02:33:57;;;;;;;25.38;14.95;;;5.60;99.40;;;;;;5069808;28;20031;-38
2022/12/18 02:36:25;;;;;;;27.58;14.95;;;5.90;99.80;;;;;;5070905;28;20031;-39
2022/12/18 02:38:53;;;;;;;25.20;15.25;;;6.70;98.50;;;;;;5074808;28;20037;-40
2022/12/18 02:41:19;;;;;;;25.55;14.73;;;6.40;98.40;;;;;;5075247;28;20466;-38
2022/12/18 02:43:49;;;;;;;24.30;14.82;;;5.90;98.90;;;;;;5075240;28;20035;-38
2022/12/18 02:46:43;;;;;;;22.73;14.23;;;5.50;99.40;;;;;;5073496;28;20359;-39
2022/12/18 02:49:34;;;;;;;23.60;14.23;;;6.20;99.60;;;;;;5074454;28;20040;-37
2022/12/18 02:52:07;;;;;;;23.83;13.85;;;6.60;98.20;;;;;;5075115;28;20035;-36
2022/12/18 02:54:44;;;;;;;26.92;14.57;;;6.20;98.50;;;;;;5073915;28;20032;-38
2022/12/18 02:57:51;;;;;;;22.75;14.05;;;5.70;99.10;;;;;;5074609;28;20095;-37
2022/12/18 03:00:21;;;;;;;25.65;14.18;;;5.60;99.80;;;;;;5067194;28;20307;-37
2022/12/18 03:03:19;;;;;;;25.92;14.55;;;6.70;98.80;;;;;;5074901;28;20024;-40
2022/12/18 03:06:18;;;;;;;24.63;14.32;;;6.40;98.40;;;;;;5074347;28;20489;-41
2022/12/18 03:08:48;;;;;;;25.90;14.77;;;5.90;98.90;;;;;;5070631;28;20036;-39
2022/12/18 03:11:15;;;;;;;23.30;14.18;;;5.50;99.50;;;;;;5074698;28;20020;-34
2022/12/18 03:13:46;;;;;;;25.85;15.18;;;6.30;99.50;;;;;;5074938;28;20024;-38
2022/12/18 03:16:17;;;;;;;27.35;14.43;;;6.70;98.20;;;;;;5074096;28;20033;-41
2022/12/18 03:18:49;;;;;;;24.75;13.88;;;6.20;98.40;;;;;;5074521;28;20066;-39
2022/12/18 03:21:22;;;;;;;25.10;14.65;;;5.80;98.90;;;;;;5074817;28;20021;-37
2022/12/18 03:23:51;;;;;;;24.90;15.05;;;5.50;99.50;;;;;;5074578;28;20032;-39
2022/12/18 03:26:21;;;;;;;24.35;15.13;;;6.50;99.30;;;;;;5074106;28;20024;-38
2022/12/18 03:28:53;;;;;;;25.45;14.73;;;6.60;98.10;;;;;;5074252;28;20024;-38
2022/12/18 03:31:21;;;;;;;22.00;13.60;;;6.20;98.50;;;;;;5074375;28;20389;-37
2022/12/18 03:33:55;;;;;;;24.52;15.13;;;5.70;99.00;;;;;;5074268;28;20139;-36
2022/12/18 03:36:22;;;;;;;23.98;14.75;;;5.50;99.70;;;;;;5074042;28;20389;-37
2022/12/18 03:38:48;;;;;;;23.88;14.45;;;6.60;99.10;;;;;;5074042;28;20032;-38
2022/12/18 03:41:29;;;;;;;24.95;14.65;;;6.60;98.20;;;;;;5074033;28;20028;-39
2022/12/18 03:44:23;;;;;;;25.58;14.93;;;6.10;98.50;;;;;;5074192;28;20108;-38
2022/12/18 03:47:17;;;;;;;28.40;15.80;;;5.60;99.20;;;;;;5073179;28;20111;-41
2022/12/18 03:50:01;;;;;;;25.35;15.02;;;6.00;99.80;;;;;;5073875;28;20033;-39
2022/12/18 03:52:37;;;;;;;27.65;15.73;;;6.80;98.30;;;;;;5073963;28;20024;-39
2022/12/18 03:55:05;;;;;;;25.95;15.02;;;6.30;98.20;;;;;;5073784;28;20123;-40
2022/12/18 03:57:32;;;;;;;29.00;15.43;;;5.90;98.70;;;;;;5073505;28;20108;-40
2022/12/18 04:00:05;;;;;;;28.75;16.35;;;5.50;99.30;;;;;;5073593;28;20033;-39
2022/12/18 04:02:33;;;;;;;26.27;15.55;;;6.20;99.40;;;;;;5074023;28;20024;-41
2022/12/18 04:05:02;;;;;;;27.33;15.43;;;6.60;98.10;;;;;;5072371;28;20029;-38
2022/12/18 04:07:28;;;;;;;27.20;14.95;;;6.20;98.30;;;;;;5073486;28;20021;-35
2022/12/18 04:09:56;;;;;;;25.60;15.48;;;5.80;98.80;;;;;;5073637;28;20035;-41
2022/12/18 04:12:29;;;;;;;26.50;16.25;;;5.50;99.40;;;;;;5072091;28;20493;-36
2022/12/18 04:14:55;;;;;;;27.38;15.35;;;6.40;99.20;;;;;;5073462;28;20402;-35
2022/12/18 04:17:22;;;;;;;27.60;16.05;;;6.70;97.90;;;;;;5073164;28;20036;-36
2022/12/18 04:19:48;;;;;;;29.00;15.95;;;6.30;98.30;;;;;;5073964;28;20028;-35
2022/12/18 04:22:13;;;;;;;25.40;15.05;;;5.80;98.70;;;;;;5073411;28;20027;-38
2022/12/18 04:24:39;;;;;;;30.48;16.02;;;5.50;99.40;;;;;;5073336;28;20031;-36
2022/12/18 04:27:05;;;;;;;27.65;15.98;;;6.30;99.30;;;;;;5073061;28;20028;-40
2022/12/18 04:29:31;;;;;;;26.83;15.80;;;6.70;98.10;;;;;;5073237;28;20078;-40
2022/12/18 04:31:56;;;;;;;25.92;15.15;;;6.20;98.20;;;;;;5073205;28;20037;-38
2022/12/18 04:34:22;;;;;;;25.15;15.48;;;5.80;98.80;;;;;;5073171;28;20029;-37
2022/12/18 04:36:47;;;;;;;28.38;16.05;;;5.50;99.40;;;;;;5072870;28;20025;-35
2022/12/18 04:39:17;;;;;;;25.45;15.50;;;6.40;99.60;;;;;;5071663;28;20033;-41
2022/12/18 04:41:42;;;;;;;26.27;15.23;;;6.70;98.00;;;;;;5073097;28;20107;-40
2022/12/18 04:44:08;;;;;;;26.15;14.75;;;6.20;98.20;;;;;;5072896;28;20103;-38
2022/12/18 04:46:33;;;;;;;29.15;16.13;;;5.80;98.80;;;;;;5072704;28;20035;-39
2022/12/18 04:48:59;;;;;;;26.77;15.57;;;5.50;99.40;;;;;;5072866;28;20472;-39
2022/12/18 04:51:27;;;;;;;25.38;14.63;;;6.40;99.30;;;;;;5073221;28;20028;-41
2022/12/18 04:53:53;;;;;;;25.50;15.52;;;6.70;98.00;;;;;;5072668;28;20058;-35
2022/12/18 04:56:19;;;;;;;28.02;14.98;;;6.30;98.30;;;;;;5072457;28;20044;-41
2022/12/18 04:58:45;;;;;;;24.00;14.65;;;5.80;98.70;;;;;;5072619;28;20108;-40
2022/12/18 05:01:14;;;;;;;25.92;14.30;;;5.50;99.30;;;;;;5072068;28;20471;-36
2022/12/18 05:03:42;;;;;;;24.58;14.43;;;6.40;99.30;;;;;;5072549;28;20474;-40
2022/12/18 05:06:11;;;;;;;24.73;14.43;;;6.70;98.10;;;;;;5072210;28;20029;-41
2022/12/18 05:08:36;;;;;;;22.65;14.63;;;6.30;98.30;;;;;;5072680;28;20028;-38
2022/12/18 05:11:09;;;;;;;26.40;15.10;;;5.80;98.70;;;;;;5072337;28;20075;-37
2022/12/18 05:13:35;;;;;;;24.13;14.40;;;5.50;99.30;;;;;;5072456;28;20534;-36
2022/12/18 05:16:01;;;;;;;22.45;13.70;;;6.50;99.20;;;;;;5071986;28;20103;-39
2022/12/18 05:18:27;;;;;;;24.40;14.55;;;6.80;98.10;;;;;;5072162;28;20050;-37
2022/12/18 05:20:54;;;;;;;23.67;15.25;;;6.30;98.30;;;;;;5072288;28;20029;-36
2022/12/18 05:23:21;;;;;;;29.60;15.50;;;5.90;98.80;;;;;;5072200;28;20025;-38
2022/12/18 05:25:55;;;;;;;27.15;16.13;;;5.60;99.40;;;;;;5072003;28;20096;-39
2022/12/18 05:28:21;;;;;;;24.60;13.82;;;6.60;99.20;;;;;;5072020;28;20029;-38
2022/12/18 05:30:52;;;;;;;25.13;15.50;;;6.70;98.00;;;;;;5071980;28;20679;-36
2022/12/18 05:33:18;;;;;;;29.30;15.23;;;6.30;98.30;;;;;;5072020;28;20028;-37
2022/12/18 05:35:44;;;;;;;26.25;16.10;;;5.80;98.80;;;;;;5071811;28;20032;-39
2022/12/18 05:38:10;;;;;;;27.38;15.38;;;5.60;99.40;;;;;;5071803;28;20051;-39
2022/12/18 05:40:36;;;;;;;22.92;14.50;;;6.50;99.20;;;;;;5071822;28;20034;-36
2022/12/18 05:43:05;;;;;;;24.83;14.00;;;6.80;97.90;;;;;;5070432;28;20052;-37
2022/12/18 05:45:30;;;;;;;25.88;15.35;;;6.30;98.20;;;;;;5071614;28;20074;-36
2022/12/18 05:47:56;;;;;;;23.77;14.40;;;5.90;98.80;;;;;;5071790;28;20020;-39
2022/12/18 05:50:21;;;;;;;25.15;15.00;;;5.60;99.20;;;;;;5071653;28;20037;-39
2022/12/18 05:52:47;;;;;;;22.98;14.75;;;6.40;99.30;;;;;;5071689;28;20565;-41
2022/12/18 05:55:13;;;;;;;26.85;15.10;;;6.80;98.00;;;;;;5071470;28;20036;-35
2022/12/18 05:57:38;;;;;;;25.10;14.63;;;6.40;98.10;;;;;;5071295;28;20033;-36
2022/12/18 06:00:04;;;;;;;25.30;15.10;;;5.90;98.70;;;;;;5071524;28;20059;-36
2022/12/18 06:02:30;;;;;;;21.88;14.55;;;5.60;99.20;;;;;;5071827;28;20378;-38
2022/12/18 06:04:55;;;;;;;24.90;14.43;;;6.20;99.50;;;;;;5071534;28;20482;-35
2022/12/18 06:07:21;;;;;;;27.95;15.05;;;6.90;98.20;;;;;;5071253;28;20025;-36
2022/12/18 06:09:47;;;;;;;23.13;14.82;;;6.50;98.30;;;;;;5071426;28;20081;-34
2022/12/18 06:12:12;;;;;;;26.25;15.80;;;6.00;98.50;;;;;;5070561;28;20025;-37
2022/12/18 06:14:38;;;;;;;24.50;14.65;;;5.60;99.00;;;;;;5071354;28;20381;-37
2022/12/18 06:17:04;;;;;;;24.58;14.57;;;6.00;99.40;;;;;;5071368;28;20039;-38
2022/12/18 06:19:29;;;;;;;24.70;14.23;;;6.80;98.10;;;;;;5071345;28;20497;-38
2022/12/18 06:21:57;;;;;;;25.02;14.70;;;6.50;97.90;;;;;;5071415;28;20020;-39
2022/12/18 06:24:23;;;;;;;24.45;14.13;;;6.00;98.40;;;;;;5071722;28;20101;-40
2022/12/18 06:26:48;;;;;;;24.98;15.38;;;5.60;98.90;;;;;;5071112;28;20063;-37
2022/12/18 06:29:14;;;;;;;26.10;14.68;;;6.00;99.30;;;;;;5071250;28;20109;-40
2022/12/18 06:31:39;;;;;;;25.13;14.77;;;6.80;97.90;;;;;;5071244;28;20032;-37
2022/12/18 06:34:05;;;;;;;23.65;15.20;;;6.40;97.80;;;;;;5071265;28;20074;-37
2022/12/18 06:36:31;;;;;;;25.55;15.00;;;5.90;98.20;;;;;;5070960;28;20028;-41
2022/12/18 06:38:57;;;;;;;23.20;14.05;;;5.50;98.80;;;;;;5071375;28;20471;-35
2022/12/18 06:41:26;;;;;;;26.23;15.60;;;5.90;99.20;;;;;;5071050;28;20056;-38
2022/12/18 06:43:52;;;;;;;22.95;14.57;;;6.70;97.90;;;;;;5071055;28;20025;-38
2022/12/18 06:46:17;;;;;;;24.67;15.45;;;6.40;97.80;;;;;;5070837;28;20051;-39
2022/12/18 06:48:46;;;;;;;28.20;16.20;;;5.90;98.20;;;;;;5071007;28;20028;-36
2022/12/18 06:51:11;;;;;;;26.05;15.73;;;5.60;98.80;;;;;;5070988;28;20032;-40
2022/12/18 06:53:40;;;;;;;24.85;14.85;;;6.00;99.20;;;;;;5071108;28;20025;-35
2022/12/18 06:56:07;;;;;;;26.15;14.82;;;6.70;97.80;;;;;;5070565;28;20028;-36
2022/12/18 06:58:33;;;;;;;24.52;14.18;;;6.40;97.80;;;;;;5071047;28;20025;-37
2022/12/18 07:01:03;;;;;;;25.38;15.63;;;5.90;98.10;;;;;;5071163;28;20550;-39
2022/12/18 07:03:28;;;;;;;27.30;15.10;;;5.50;98.70;;;;;;5070920;28;20067;-35
2022/12/18 07:05:54;;;;;;;23.95;14.68;;;6.00;99.30;;;;;;5070724;28;20486;-39
2022/12/18 07:08:20;;;;;;;24.90;14.85;;;6.70;97.70;;;;;;5070737;28;20035;-40
2022/12/18 07:10:45;;;;;;;27.10;15.95;;;6.30;97.70;;;;;;5071640;28;20375;-37
2022/12/18 07:13:14;;;;;;;27.27;15.77;;;5.90;98.20;;;;;;5070857;28;20028;-37
2022/12/18 07:15:39;;;;;;;25.15;14.68;;;5.50;98.80;;;;;;5070502;28;20108;-34
2022/12/18 07:18:05;;;;;;;26.63;15.13;;;6.10;99.00;;;;;;5070632;28;20112;-39
2022/12/18 07:20:31;;;;;;;26.92;15.65;;;6.70;97.70;;;;;;5071196;28;20036;-38
2022/12/18 07:22:57;;;;;;;25.67;15.50;;;6.30;97.70;;;;;;5069908;28;20036;-39
2022/12/18 07:25:23;;;;;;;27.90;16.08;;;5.90;98.10;;;;;;5074638;28;20498;-35
2022/12/18 07:27:49;;;;;;;27.63;15.32;;;5.50;98.70;;;;;;5074423;28;20108;-35
2022/12/18 07:30:14;;;;;;;25.02;14.90;;;6.10;99.00;;;;;;5073173;28;20050;-37
2022/12/18 07:32:42;;;;;;;27.95;15.07;;;6.70;97.60;;;;;;5074228;28;20482;-36
2022/12/18 07:35:08;;;;;;;27.30;15.65;;;6.40;97.60;;;;;;5074274;28;20032;-38
2022/12/18 07:37:33;;;;;;;27.30;15.95;;;5.90;98.10;;;;;;5073901;28;20093;-35
2022/12/18 07:39:59;;;;;;;26.55;15.27;;;5.50;98.60;;;;;;5074133;28;20028;-39
2022/12/18 07:42:30;;;;;;;25.27;15.57;;;6.00;99.10;;;;;;5074372;28;20103;-38
2022/12/18 07:44:57;;;;;;;25.45;15.02;;;6.70;97.60;;;;;;5074156;28;20298;-38
2022/12/18 07:47:22;;;;;;;28.00;15.52;;;6.30;97.60;;;;;;5073577;28;20386;-37
2022/12/18 07:49:48;;;;;;;28.40;16.08;;;5.90;98.10;;;;;;5073933;28;20467;-36
2022/12/18 07:52:14;;;;;;;26.92;15.90;;;5.50;98.60;;;;;;5073882;28;20099;-38
2022/12/18 07:54:40;;;;;;;25.92;15.98;;;6.10;99.30;;;;;;5073730;28;20040;-40
2022/12/18 07:57:06;;;;;;;22.80;13.80;;;6.70;97.90;;;;;;5072180;28;20021;-38
2022/12/18 07:59:31;;;;;;;27.13;16.27;;;6.30;97.60;;;;;;5073764;28;20028;-38
2022/12/18 08:01:58;;;;;;;30.05;16.80;;;5.90;98.00;;;;;;5073623;28;20078;-40
2022/12/18 08:04:24;;;;;;;30.35;17.20;;;5.50;98.60;;;;;;5073859;28;20027;-37
2022/12/18 08:06:50;;;;;;;30.77;18.27;;;6.00;99.00;;;;;;5073409;28;20020;-38
2022/12/18 08:09:16;;;;;;;28.10;17.17;;;6.70;97.60;;;;;;5073637;28;20031;-38
2022/12/18 08:11:44;;;;;;;30.25;17.92;;;6.30;97.60;;;;;;5073626;28;20032;-38
2022/12/18 08:14:10;;;;;;;32.83;18.55;;;5.90;98.20;;;;;;5073589;28;20028;-38
2022/12/18 08:16:36;;;;;;;35.60;19.25;;;5.60;98.80;;;;;;5073634;28;20025;-36
2022/12/18 08:19:01;;;;;;;33.80;18.67;;;5.90;99.40;;;;;;5073537;28;20032;-36
2022/12/18 08:21:30;;;;;;;34.60;18.55;;;6.80;98.10;;;;;;5073441;28;20056;-34
2022/12/18 08:23:58;;;;;;;32.35;18.85;;;6.50;97.90;;;;;;5073390;28;20052;-36
2022/12/18 08:26:25;;;;;;;35.33;19.25;;;6.00;98.40;;;;;;5073063;28;20448;-40
2022/12/18 08:28:51;;;;;;;29.73;18.02;;;5.70;99.10;;;;;;5073262;28;20020;-36
2022/12/18 08:31:18;;;;;;;31.13;17.92;;;5.90;99.90;;;;;;5073125;28;20079;-40
2022/12/18 08:33:44;;;;;;;30.67;18.17;;;6.80;98.70;;;;;;5073211;28;20024;-40
2022/12/18 08:36:10;;;;;;;31.63;18.35;;;6.60;98.30;;;;;;5071927;28;20032;-34
2022/12/18 08:38:35;;;;;;;33.85;16.80;;;6.20;98.70;;;;;;5073014;28;20103;-37
2022/12/18 08:41:10;;;;;;;27.63;16.50;;;5.90;99.20;;;;;;5073039;28;20100;-36
2022/12/18 08:46:22;;;;;;;28.77;16.23;;;6.80;99.20;;;;;;5072750;28;20449;-36
2022/12/18 08:48:48;;;;;;;30.38;17.08;;;6.70;98.50;;;;;;5072859;28;20079;-37
2022/12/18 08:51:16;;;;;;;29.30;17.42;;;6.30;98.90;;;;;;5072776;28;20020;-36
2022/12/18 08:53:41;;;;;;;28.95;17.33;;;5.90;99.40;;;;;;5072778;28;20064;-35
2022/12/18 08:56:07;;;;;;;28.85;17.27;;;5.80;99.90;;;;;;5072211;28;20059;-36
2022/12/18 08:58:33;;;;;;;28.08;17.70;;;6.80;99.60;;;;;;5072533;28;20433;-37
2022/12/18 09:01:03;;;;;;;35.05;18.35;;;6.80;98.70;;;;;;5072658;28;20016;-35
2022/12/18 09:03:32;;;;;;;27.67;16.65;;;6.40;99.00;;;;;;5072571;28;20501;-36
2022/12/18 09:05:59;;;;;;;27.42;16.10;;;6.10;99.50;;;;;;5072323;28;20050;-35
2022/12/18 09:08:28;;;;;;;30.40;17.13;;;5.80;99.90;;;;;;5072462;28;20081;-34
2022/12/18 09:10:54;;;;;;;30.88;17.25;;;6.60;99.90;;;;;;5072461;28;20466;-35
2022/12/18 09:13:20;;;;;;;29.30;16.48;;;7.10;98.80;;;;;;5072471;28;20066;-36
2022/12/18 09:15:48;;;;;;;31.45;17.38;;;6.70;98.90;;;;;;5072182;28;20457;-36
2022/12/18 09:18:16;;;;;;;28.40;17.70;;;6.30;99.40;;;;;;5072243;28;20025;-38
2022/12/18 09:20:42;;;;;;;28.98;17.13;;;6.00;99.90;;;;;;5072227;28;20028;-39
2022/12/18 09:23:10;;;;;;;29.73;18.15;;;5.80;99.90;;;;;;5072059;28;20482;-39
2022/12/18 09:25:37;;;;;;;29.52;17.55;;;5.60;99.90;;;;;;5072235;28;20024;-38
2022/12/18 09:28:10;;;;;;;29.75;17.08;;;5.40;99.90;;;;;;5071849;28;20037;-36
2022/12/18 09:30:44;;;;;;;32.97;18.63;;;5.70;99.90;;;;;;5072111;28;20090;-37
2022/12/18 09:33:12;;;;;;;31.08;17.27;;;6.80;99.90;;;;;;5072143;28;20028;-40
2022/12/18 09:35:42;;;;;;;28.40;17.13;;;6.60;99.60;;;;;;5071627;28;20120;-40
2022/12/18 09:38:15;;;;;;;28.27;16.80;;;6.30;99.90;;;;;;5071747;28;20068;-41
2022/12/18 09:40:53;;;;;;;30.93;17.90;;;6.00;99.90;;;;;;5071895;28;20082;-37
2022/12/18 09:43:26;;;;;;;28.65;17.13;;;5.80;99.90;;;;;;5071826;28;20254;-38
2022/12/18 09:45:58;;;;;;;37.78;21.52;;;5.70;99.90;;;;;;5071504;28;20355;-42
2022/12/18 09:48:35;;;;;;;38.60;21.23;;;5.90;95.40;;;;;;5071741;28;20024;-40
2022/12/18 09:51:10;;;;;;;38.17;21.10;;;6.70;95.20;;;;;;5071678;28;20504;-41
2022/12/18 09:53:40;;;;;;;36.10;19.98;;;6.30;96.00;;;;;;5071799;28;20028;-40
2022/12/18 09:56:10;;;;;;;35.95;20.25;;;6.00;97.30;;;;;;5071243;28;20036;-40
2022/12/18 09:58:46;;;;;;;34.50;20.17;;;5.70;98.20;;;;;;5071389;28;20034;-39
2022/12/18 10:01:20;;;;;;;35.78;20.85;;;5.50;98.80;;;;;;5071786;28;20020;-42
2022/12/18 10:03:47;;;;;;;38.67;21.40;;;5.40;99.40;;;;;;5071565;28;20421;-40
2022/12/18 10:06:26;;;;;;;33.60;19.00;;;5.40;99.90;;;;;;5071160;28;20413;-42
2022/12/18 10:09:26;;;;;;;37.65;20.88;;;5.40;99.90;;;;;;5071578;28;20026;-39
2022/12/18 10:12:13;;;;;;;34.65;18.63;;;6.60;99.60;;;;;;5071570;28;20024;-39
2022/12/18 10:14:56;;;;;;;30.67;18.80;;;6.80;98.60;;;;;;5071055;28;20112;-40
2022/12/18 10:17:49;;;;;;;33.05;19.80;;;6.50;98.70;;;;;;5071146;28;20029;-40
2022/12/18 10:20:31;;;;;;;31.30;18.30;;;6.30;99.10;;;;;;5071231;28;20028;-42
2022/12/18 10:23:14;;;;;;;33.60;18.08;;;6.10;99.50;;;;;;5071530;28;20047;-42
2022/12/18 10:25:52;;;;;;;31.25;18.40;;;5.90;99.80;;;;;;5071160;28;20494;-38
2022/12/18 10:28:20;;;;;;;32.35;18.40;;;5.90;99.90;;;;;;5071308;28;20036;-39
2022/12/18 10:30:45;;;;;;;31.50;17.70;;;5.90;99.90;;;;;;5071110;28;20543;-39
2022/12/18 10:33:20;;;;;;;30.15;17.48;;;7.10;99.60;;;;;;5071228;28;20036;-39
2022/12/18 10:35:51;;;;;;;27.77;16.60;;;7.30;98.50;;;;;;5070882;28;20024;-40
2022/12/18 10:38:17;;;;;;;28.33;17.25;;;7.00;98.70;;;;;;5071075;28;20098;-39
2022/12/18 10:41:04;;;;;;;34.40;19.02;;;6.80;99.00;;;;;;5071147;28;20510;-40
2022/12/18 10:43:39;;;;;;;29.48;17.58;;;6.50;99.30;;;;;;5071159;28;20020;-41
2022/12/18 10:46:07;;;;;;;28.70;17.20;;;6.40;99.60;;;;;;5070840;28;20020;-39
2022/12/18 10:48:36;;;;;;;30.15;17.45;;;6.20;99.80;;;;;;5071003;28;20056;-38
2022/12/18 10:51:03;;;;;;;31.15;17.88;;;6.10;99.90;;;;;;5071023;28;20490;-40
2022/12/18 10:53:33;;;;;;;31.35;17.08;;;6.90;99.90;;;;;;5070921;28;20031;-42
2022/12/18 10:56:05;;;;;;;28.75;17.02;;;7.60;98.60;;;;;;5070599;28;20047;-39
2022/12/18 10:58:34;;;;;;;28.90;15.48;;;7.30;98.30;;;;;;5072306;28;20052;-37
2022/12/18 11:01:20;;;;;;;27.70;15.90;;;7.10;98.70;;;;;;5073642;28;20021;-40
2022/12/18 11:03:55;;;;;;;28.20;16.10;;;6.80;99.00;;;;;;5074915;28;20433;-39
2022/12/18 11:06:24;;;;;;;27.52;16.50;;;6.50;99.30;;;;;;5074432;28;20070;-38
2022/12/18 11:09:01;;;;;;;30.85;17.65;;;6.40;99.60;;;;;;5074859;28;20028;-41
2022/12/18 11:11:28;;;;;;;28.52;17.02;;;6.30;99.80;;;;;;5074801;28;20544;-40
2022/12/18 11:14:04;;;;;;;29.88;16.27;;;7.30;99.60;;;;;;5074677;28;20028;-39
2022/12/18 11:16:37;;;;;;;25.35;15.07;;;7.60;98.20;;;;;;5074287;28;20490;-40
2022/12/18 11:19:31;;;;;;;27.05;15.80;;;7.30;98.20;;;;;;5074756;28;20047;-39
2022/12/18 11:21:57;;;;;;;27.38;16.00;;;7.00;98.60;;;;;;5074659;28;20056;-39
2022/12/18 11:24:34;;;;;;;29.17;17.10;;;6.80;99.00;;;;;;5074514;28;20039;-42
2022/12/18 11:27:03;;;;;;;27.00;16.67;;;6.50;99.30;;;;;;5074030;28;20086;-39
2022/12/18 11:29:35;;;;;;;24.85;14.93;;;6.40;99.50;;;;;;5074360;28;20032;-40
2022/12/18 11:32:21;;;;;;;29.33;16.95;;;6.50;99.90;;;;;;5074342;28;20032;-42
2022/12/18 11:34:52;;;;;;;28.52;15.50;;;7.70;98.70;;;;;;5074357;28;20067;-37
2022/12/18 11:37:21;;;;;;;28.90;16.52;;;7.60;98.10;;;;;;5073914;28;20056;-42
2022/12/18 11:40:05;;;;;;;26.73;15.95;;;7.20;98.30;;;;;;5074161;28;20020;-42
2022/12/18 11:42:45;;;;;;;27.75;16.15;;;6.90;98.70;;;;;;5074360;28;20024;-40
2022/12/18 11:45:11;;;;;;;27.02;15.98;;;6.60;99.10;;;;;;5074132;28;20027;-42
2022/12/18 11:48:12;;;;;;;26.77;16.13;;;6.40;99.40;;;;;;5073673;28;20101;-42
2022/12/18 11:50:47;;;;;;;29.00;16.38;;;6.30;99.70;;;;;;5074315;28;20404;-40
2022/12/18 11:53:16;;;;;;;29.50;15.90;;;7.50;99.20;;;;;;5074050;28;20482;-41
2022/12/18 11:55:53;;;;;;;27.70;16.88;;;7.60;98.10;;;;;;5073695;28;20041;-39
2022/12/18 11:58:40;;;;;;;28.70;15.95;;;7.20;98.20;;;;;;5073698;28;20074;-41
2022/12/18 12:01:34;;;;;;;27.98;15.95;;;6.90;98.70;;;;;;5073884;28;20024;-40
2022/12/18 12:04:24;;;;;;;25.27;14.93;;;6.60;99.10;;;;;;5073803;28;20024;-39
2022/12/18 12:06:58;;;;;;;26.55;15.77;;;6.40;99.40;;;;;;5073476;28;20021;-42
2022/12/18 12:09:29;;;;;;;30.42;17.00;;;6.30;99.70;;;;;;5073032;28;20021;-39
2022/12/18 12:12:01;;;;;;;26.15;16.25;;;7.30;99.50;;;;;;5073509;28;20056;-38
2022/12/18 12:14:29;;;;;;;27.83;15.45;;;7.50;98.20;;;;;;5073712;28;20659;-42
2022/12/18 12:17:14;;;;;;;28.58;14.88;;;7.20;98.30;;;;;;5073086;28;20478;-41
2022/12/18 12:19:45;;;;;;;;;;;6.80;98.60;;;;;;5073951;28;20086;-42
2022/12/18 12:22:21;;;;;;;29.55;15.38;;;6.60;99.10;;;;;;5073461;28;19905;-38
2022/12/18 12:25:05;;;;;;;26.25;14.70;;;6.30;99.40;;;;;;5073777;28;20398;-42
2022/12/18 12:28:06;;;;;;;27.23;14.90;;;6.20;99.70;;;;;;5073282;28;20025;-40
2022/12/18 12:31:13;;;;;;;28.38;15.52;;;7.20;99.50;;;;;;5073280;28;20024;-41
2022/12/18 12:33:59;;;;;;;27.63;15.30;;;7.40;98.30;;;;;;5073159;28;20023;-41
2022/12/18 12:36:31;;;;;;;28.25;15.32;;;7.00;98.50;;;;;;5072952;28;20020;-39
2022/12/18 12:39:01;;;;;;;26.52;15.52;;;6.70;98.90;;;;;;5073246;28;20031;-42
2022/12/18 12:44:26;;;;;;;28.08;15.05;;;6.20;99.60;;;;;;5073284;28;20078;-38
2022/12/18 12:46:56;;;;;;;25.88;14.98;;;6.20;99.90;;;;;;5072616;28;20016;-40
2022/12/18 12:49:28;;;;;;;27.48;15.48;;;7.30;99.20;;;;;;5072851;28;20035;-41
2022/12/18 12:52:06;;;;;;;25.50;14.05;;;7.30;98.30;;;;;;5072847;28;20116;-38
2022/12/18 12:54:33;;;;;;;26.05;14.90;;;6.90;98.60;;;;;;5072601;28;20059;-39
2022/12/18 12:57:09;;;;;;;30.50;15.98;;;6.70;99.00;;;;;;5072379;28;20078;-42
2022/12/18 12:59:51;;;;;;;24.58;14.65;;;6.40;99.40;;;;;;5072602;28;20481;-37
2022/12/18 13:02:31;;;;;;;25.60;15.40;;;6.20;99.70;;;;;;5072660;28;20518;-40
2022/12/18 13:05:38;;;;;;;28.63;16.00;;;6.30;99.90;;;;;;5072516;28;20466;-40